METAR Data

Data at: 2112 UTC 01 Dec 2021

METAR for:KLWM (Lawrence Muni, MA, US)
Text:KLWM 012054Z 23009KT 10SM CLR 06/M03 A3011 RMK AO2 SLP197 T00611033 53015
Temperature: 6.1°C ( 43°F)
Dewpoint: -3.3°C ( 26°F) [RH = 51%]
Pressure (altimeter):30.11 inches Hg (1019.7 mb) [Sea level pressure: 1019.7 mb]
Winds:from the SW (230 degrees) at 10 MPH (9 knots; 4.6 m/s)
Visibility:10 or more sm (16+ km)
Ceiling:at least 12,000 feet AGL
Clouds:sky clear below 12,000 feet AGL